Mendota, Minnesota
Current Conditions -  °F | °C
As of 11:53 AM on Thursday 29 Jan 2015 (Local Time) from KMSP Reporting Station
Broken Clouds Broken Clouds  
Wind Chill: 19°   Ceiling: 2300
Heat Index: 31°   Visibility: 10mi
Dew Point: 21°   Wind: 18mph
Humidity: 67%   Direction: 300°WNW
Pressure: 30.23"   Gusts: 28mph
Location:  44.89°N, 93.16°W
Report Text: KMSP 291753Z 30016G24KT 10SM BKN023 BKN044 M01/M06 A3023 RMK AO2 SLP248 60000 I6000 T10061061 10011 21011 51027
Loading
Personal Weather Stations






























Interactive Weather Map New forecast layout! Learn more

10-Day Weather Forecast

Advertisements
Track Severe Weather on mobile